Aérodrome :
LOGIN :

S'inscrire | Disclaimer

   EN    FR    IT 

 










Légende :    VFR   VFR Marginal   IFR   IFR Intensif   IFR Très Intensif
Visi : 
Plafond : 
>= 8 km
>= 3000ft
5 à 8 km
1000 à 3000 ft
1500m à 5 km
500 à 1000 ft
800 à 1500m
200 à 500 ft
< 800m
< 200 ft
Symboles :   Orages  Brouillard  Fortes neiges  Fortes précipitations  Vent > 20 kt
SIGMETs :   Divers  Orages  Givrage  Turbulence  Onde Orograph.  Cendres Volcan.







- Altitude de l'aérodrome : 436 ft
- Code IATA : ANG
- Voir les cartes d'approche


LFBU - Angoulême Brie Champniers

DERNIER METAR :
  • 300300Z AUTO 14011KT 100V190 CAVOK 10/M01 Q1005

METARs EXPIRÉS :
  • 300230Z AUTO 14010KT 100V180 CAVOK 10/M01 Q1005
  • 300200Z AUTO 14010KT 100V180 CAVOK 10/M02 Q1006
  • 300130Z AUTO 14009KT 090V170 CAVOK 10/M02 Q1006
  • 300100Z AUTO 14009KT 090V170 CAVOK 10/M03 Q1006
  • 300030Z AUTO 14009KT 100V190 CAVOK 10/M02 Q1007

TAF TAF LFBU
Valide du 29 à 18h jusqu'au 30 à 18h UTC


291700Z 2918/3018 16007KT CAVOK
BECMG 3004/3006 16015G25KT -RA
TEMPO 3009/3014 18018G30KT 4000 RA BKN045 FEW060CB
BECMG 3014/3016 25015G25KT
TEMPO 3016/3018 24018G35KT 4500 SHRA FEW015 BKN030TCU FEW040CB
Pas de NOTAMs connus pour ce terrain.
4 SIGMETs publiés pour la FIR Bordeaux (LFBB) :
 
Orages noyés dans la masse
LFBB SIGMET 2 VALID 300300/300500 LFPW
LFBB BORDEAUX FIR/UIR EMBD TS OBS WI N4530 W00145 - N4630 W00130 - N4530 W00045 TOP FL280 MOV NE 20KT NC=
Turbulence forte
LFBB SIGMET 2 VALID 300000/300400 LFPW
LFBB BORDEAUX FIR/UIR SEV TURB FCST WI N4430 E00245 - N4315 E00230 - N4315 E00145 - N4415 E00215 SFC/FL060 STNR INTSF=
Onde orographique forte
LFBB SIGMET 1 VALID 300400/300800 LFPW
LFBB BORDEAUX FIR/UIR SEV MTW FCST S OF LINE N4245 E00230 - N4330 W00145 SFC/FL340 STNR INTSF=
Turbulence forte
LFBB SIGMET 1 VALID 300000/300400 LFPW
LFBB BORDEAUX FIR/UIR SEV TURB FCST S OF LINE N4245 E00230 - N4330 W00145 SFC/FL140 STNR INTSF=



MET'MAP, la Météo Aéronautique d'un coup d'oeil ! - Copyright ORBIFLY Décembre 2007 - Disclaimer

ORBIFLY MET'MAP TEAM :

Programmation & Développement : Alexandra Zaïnal
Conception & Développement : Baudouin d'Aumeries
Co-Programmation & Développement : Marc-Olivier Méhu
Soutien technique & logistique : Manuel Goepfert

Contact : metmap@orbifly.com




SOURCES & CREDITS :

   NOAA